Darstellungsparameter: Aktuell verwendete Einstellungen:
Skalierung der Graphiken ... ?
xyx+y,   Skalierungsfaktor:      Skalierung: Modus: x, Faktor: 1
Darstellungszeitraum ... ?
Vom - - bis: - -   Zeitraum: 13.08.2020 - 13.08.2020
Min/Max/Avg-Anzeige ... ?
Zeige MMA aktuell
Zeige MMA Monat
Zeige MMA alles
Zeige --A aktuell
Zeige --A Monat
Zeige --A alles
Keine MMA-Anzeige
MMA:
Average (ber die Originaldaten)
MMA-Basis: 23.02.2003 - 19.08.2019
Quicknavigation für Darstellung... ?
Tage:      1T, 2T, 3T, 5T -1T -2T -3T -5T +1T +2T +3T +5T
Wochen: 1W, 2W, 3W -1W -2W -3W +1W +2W +3W
Monate: 1M, 3M, 6M -1M -3M -6M +1M +3M +6M
Jahre:    1J, 3J, 5J, 10J -1J -3J -5J -10J +1J +3J +5J +10J
Nutze für die Darstellung ... ?
Originaldaten oder Mittelwerte auf ...
Stundenbasis Tagesbasis Wochenbasis
Monatsbasis Jahresbasis      Datenbasis: Original-Daten
Darstellen als:
Statistik (Auto) Statistik J:M      Darstellung:
Zur Graphik,    zurück zur Übersicht aller Sensoren.
 
Tabellarische Datenbersicht: ?
 
Sensor: Nr:Datum:Temp:Feuchte:Taupunkt:
Aussen-T/F 1 13-08-2020 00:00:00 19.9 C 95 % 19.07 C
2 13-08-2020 00:05:00 19.9 C 95 % 19.07 C
3 13-08-2020 00:10:00 19.9 C 94 % 18.91 C
4 13-08-2020 00:15:00 19.9 C 95 % 19.07 C
5 13-08-2020 00:20:00 19.9 C 95 % 19.07 C
6 13-08-2020 00:25:00 20 C 95 % 19.17 C
7 13-08-2020 00:30:00 20 C 95 % 19.17 C
8 13-08-2020 00:35:00 20 C 95 % 19.17 C
9 13-08-2020 00:40:00 19.9 C 95 % 19.07 C
10 13-08-2020 00:45:00 19.9 C 95 % 19.07 C
11 13-08-2020 00:50:00 19.9 C 94 % 18.91 C
12 13-08-2020 00:55:00 19.9 C 94 % 18.91 C
13 13-08-2020 01:00:00 19.9 C 95 % 19.07 C
14 13-08-2020 01:05:00 19.9 C 95 % 19.07 C
15 13-08-2020 01:10:00 19.8 C 94 % 18.81 C
16 13-08-2020 01:15:00 19.8 C 95 % 18.98 C
17 13-08-2020 01:20:00 19.8 C 94 % 18.81 C
18 13-08-2020 01:25:00 19.8 C 94 % 18.81 C
19 13-08-2020 01:30:00 19.7 C 94 % 18.71 C
20 13-08-2020 01:35:00 19.7 C 94 % 18.71 C
21 13-08-2020 01:40:00 19.7 C 95 % 18.88 C
22 13-08-2020 01:45:00 19.7 C 95 % 18.88 C
23 13-08-2020 01:50:00 19.7 C 94 % 18.71 C
24 13-08-2020 01:55:00 19.6 C 94 % 18.61 C
25 13-08-2020 02:00:00 19.6 C 94 % 18.61 C
Sensor: Nr:Datum:Temp:Feuchte:Taupunkt:
Aussen-T/F 26 13-08-2020 02:05:00 19.6 C 94 % 18.61 C
27 13-08-2020 02:10:00 19.6 C 94 % 18.61 C
28 13-08-2020 02:15:00 19.5 C 94 % 18.51 C
29 13-08-2020 02:20:00 19.4 C 94 % 18.41 C
30 13-08-2020 02:25:00 19.4 C 95 % 18.58 C
31 13-08-2020 02:30:00 19.4 C 94 % 18.41 C
32 13-08-2020 02:35:00 19.3 C 94 % 18.31 C
33 13-08-2020 02:40:00 19.2 C 94 % 18.21 C
34 13-08-2020 02:45:00 19.2 C 94 % 18.21 C
35 13-08-2020 02:50:00 19.2 C 94 % 18.21 C
36 13-08-2020 02:55:00 19.2 C 94 % 18.21 C
37 13-08-2020 03:00:00 19.2 C 95 % 18.38 C
38 13-08-2020 03:05:00 19.1 C 95 % 18.28 C
39 13-08-2020 03:10:00 19.1 C 95 % 18.28 C
40 13-08-2020 03:15:00 19.1 C 95 % 18.28 C
41 13-08-2020 03:20:00 19.1 C 95 % 18.28 C
42 13-08-2020 03:25:00 19.1 C 95 % 18.28 C
43 13-08-2020 03:30:00 19 C 95 % 18.18 C
44 13-08-2020 03:35:00 19 C 95 % 18.18 C
45 13-08-2020 03:40:00 18.9 C 95 % 18.08 C
46 13-08-2020 03:45:00 18.9 C 95 % 18.08 C
47 13-08-2020 03:50:00 18.9 C 95 % 18.08 C
48 13-08-2020 03:55:00 18.9 C 95 % 18.08 C
49 13-08-2020 04:00:00 18.9 C 95 % 18.08 C
50 13-08-2020 04:05:00 18.9 C 95 % 18.08 C
Sensor: Nr:Datum:Temp:Feuchte:Taupunkt:
Aussen-T/F 51 13-08-2020 04:10:00 18.9 C 95 % 18.08 C
52 13-08-2020 04:15:00 18.9 C 95 % 18.08 C
53 13-08-2020 04:20:00 18.9 C 95 % 18.08 C
54 13-08-2020 04:25:00 18.8 C 95 % 17.98 C
55 13-08-2020 04:30:00 18.9 C 95 % 18.08 C
56 13-08-2020 04:35:00 18.9 C 95 % 18.08 C
57 13-08-2020 04:40:00 19 C 96 % 18.35 C
58 13-08-2020 04:45:00 19.1 C 96 % 18.45 C
59 13-08-2020 04:50:00 19.3 C 96 % 18.65 C
60 13-08-2020 04:55:00 19.4 C 96 % 18.75 C
61 13-08-2020 05:00:00 19.6 C 96 % 18.94 C
62 13-08-2020 05:05:00 19.7 C 96 % 19.04 C
63 13-08-2020 05:10:00 19.7 C 96 % 19.04 C
64 13-08-2020 05:15:00 19.7 C 96 % 19.04 C
65 13-08-2020 05:20:00 19.7 C 96 % 19.04 C
66 13-08-2020 05:25:00 19.8 C 96 % 19.14 C
67 13-08-2020 05:30:00 19.8 C 96 % 19.14 C
68 13-08-2020 05:35:00 19.8 C 96 % 19.14 C
69 13-08-2020 05:40:00 19.8 C 96 % 19.14 C
70 13-08-2020 05:45:00 19.9 C 96 % 19.24 C
71 13-08-2020 05:50:00 19.9 C 96 % 19.24 C
72 13-08-2020 05:55:00 19.9 C 96 % 19.24 C
73 13-08-2020 06:00:00 19.9 C 96 % 19.24 C
74 13-08-2020 06:05:00 19.9 C 96 % 19.24 C
75 13-08-2020 06:10:00 19.9 C 96 % 19.24 C
Sensor: Nr:Datum:Temp:Feuchte:Taupunkt:
Aussen-T/F 76 13-08-2020 06:15:00 19.9 C 96 % 19.24 C
77 13-08-2020 06:20:00 19.9 C 96 % 19.24 C
78 13-08-2020 06:25:00 19.9 C 96 % 19.24 C
79 13-08-2020 06:30:00 19.8 C 96 % 19.14 C
80 13-08-2020 06:35:00 19.8 C 96 % 19.14 C
81 13-08-2020 06:40:00 19.8 C 96 % 19.14 C
82 13-08-2020 06:45:00 19.8 C 96 % 19.14 C
83 13-08-2020 06:50:00 19.7 C 96 % 19.04 C
84 13-08-2020 06:55:00 19.7 C 96 % 19.04 C
85 13-08-2020 07:00:00 19.7 C 96 % 19.04 C
86 13-08-2020 07:05:00 19.7 C 96 % 19.04 C
87 13-08-2020 07:10:00 19.7 C 96 % 19.04 C
88 13-08-2020 07:15:00 19.7 C 96 % 19.04 C
89 13-08-2020 07:20:00 19.6 C 96 % 18.94 C
90 13-08-2020 07:25:00 19.6 C 96 % 18.94 C
91 13-08-2020 07:30:00 19.6 C 96 % 18.94 C
92 13-08-2020 07:35:00 19.6 C 96 % 18.94 C
93 13-08-2020 07:40:00 19.6 C 96 % 18.94 C
94 13-08-2020 07:45:00 19.7 C 96 % 19.04 C
95 13-08-2020 07:50:00 19.7 C 97 % 19.21 C
96 13-08-2020 07:55:00 19.7 C 97 % 19.21 C
97 13-08-2020 08:00:00 19.8 C 97 % 19.31 C
98 13-08-2020 08:05:00 19.8 C 97 % 19.31 C
99 13-08-2020 08:10:00 19.8 C 97 % 19.31 C
100 13-08-2020 08:15:00 19.8 C 97 % 19.31 C
Sensor: Nr:Datum:Temp:Feuchte:Taupunkt:
Aussen-T/F 101 13-08-2020 08:20:00 19.8 C 97 % 19.31 C
102 13-08-2020 08:25:00 19.8 C 97 % 19.31 C
103 13-08-2020 08:30:00 19.8 C 97 % 19.31 C
104 13-08-2020 08:35:00 19.8 C 97 % 19.31 C
105 13-08-2020 08:40:00 19.8 C 97 % 19.31 C
106 13-08-2020 08:45:00 19.8 C 97 % 19.31 C
107 13-08-2020 08:50:00 19.8 C 97 % 19.31 C
108 13-08-2020 08:55:00 19.9 C 97 % 19.41 C
109 13-08-2020 09:00:00 19.9 C 97 % 19.41 C
110 13-08-2020 09:05:00 20 C 97 % 19.51 C
111 13-08-2020 09:10:00 20.1 C 97 % 19.61 C
112 13-08-2020 09:15:00 20.2 C 97 % 19.71 C
113 13-08-2020 09:20:00 20.4 C 97 % 19.91 C
114 13-08-2020 09:25:00 20.6 C 97 % 20.11 C
115 13-08-2020 09:30:00 20.6 C 97 % 20.11 C
116 13-08-2020 09:35:00 20.7 C 97 % 20.21 C
117 13-08-2020 09:40:00 20.8 C 97 % 20.31 C
118 13-08-2020 09:45:00 20.9 C 97 % 20.41 C
119 13-08-2020 09:50:00 21 C 97 % 20.51 C
120 13-08-2020 09:55:00 21.1 C 97 % 20.6 C
121 13-08-2020 10:00:00 21.2 C 97 % 20.7 C
122 13-08-2020 10:05:00 21.3 C 97 % 20.8 C
123 13-08-2020 10:10:00 21.3 C 97 % 20.8 C
124 13-08-2020 10:15:00 21.4 C 97 % 20.9 C
125 13-08-2020 10:20:00 21.5 C 97 % 21 C
Sensor: Nr:Datum:Temp:Feuchte:Taupunkt:
Aussen-T/F 126 13-08-2020 10:25:00 21.6 C 97 % 21.1 C
127 13-08-2020 10:30:00 21.7 C 97 % 21.2 C
128 13-08-2020 10:35:00 21.8 C 97 % 21.3 C
129 13-08-2020 10:40:00 21.8 C 97 % 21.3 C
130 13-08-2020 10:45:00 21.9 C 97 % 21.4 C
131 13-08-2020 10:50:00 22 C 97 % 21.5 C
132 13-08-2020 10:55:00 22.2 C 97 % 21.7 C
133 13-08-2020 11:00:00 22.4 C 97 % 21.9 C
134 13-08-2020 11:05:00 22.5 C 98 % 22.17 C
135 13-08-2020 11:10:00 22.6 C 97 % 22.1 C
136 13-08-2020 11:15:00 22.7 C 97 % 22.2 C
137 13-08-2020 11:20:00 22.8 C 97 % 22.3 C
138 13-08-2020 11:25:00 22.9 C 97 % 22.4 C
139 13-08-2020 11:30:00 23.2 C 97 % 22.7 C
140 13-08-2020 11:35:00 23.2 C 97 % 22.7 C
141 13-08-2020 11:40:00 23.1 C 96 % 22.43 C
142 13-08-2020 11:45:00 23.3 C 96 % 22.63 C
143 13-08-2020 11:50:00 23.7 C 96 % 23.02 C
144 13-08-2020 11:55:00 23.9 C 96 % 23.22 C
145 13-08-2020 12:00:00 23.8 C 94 % 22.77 C
146 13-08-2020 12:05:00 23.9 C 92 % 22.52 C
147 13-08-2020 12:10:00 24.1 C 91 % 22.54 C
148 13-08-2020 12:15:00 24.3 C 89 % 22.37 C
149 13-08-2020 12:20:00 24.7 C 91 % 23.13 C
150 13-08-2020 12:25:00 24.8 C 88 % 22.67 C
Sensor: Nr:Datum:Temp:Feuchte:Taupunkt:
Aussen-T/F 151 13-08-2020 12:30:00 25.2 C 82 % 21.91 C
152 13-08-2020 12:35:00 25.5 C 81 % 22 C
153 13-08-2020 12:40:00 25.8 C 77 % 21.46 C
154 13-08-2020 12:45:00 26.2 C 75 % 21.41 C
155 13-08-2020 12:50:00 26.5 C 74 % 21.48 C
156 13-08-2020 12:55:00 26.8 C 74 % 21.77 C
157 13-08-2020 13:00:00 26.9 C 73 % 21.65 C
158 13-08-2020 13:05:00 27.1 C 73 % 21.84 C
159 13-08-2020 13:10:00 27.2 C 71 % 21.48 C
160 13-08-2020 13:15:00 27.4 C 72 % 21.9 C
161 13-08-2020 13:20:00 27.6 C 71 % 21.86 C
162 13-08-2020 13:25:00 27.8 C 72 % 22.28 C
163 13-08-2020 13:30:00 28.1 C 71 % 22.34 C
164 13-08-2020 13:35:00 28.2 C 69 % 21.97 C
165 13-08-2020 13:40:00 28.3 C 70 % 22.3 C
166 13-08-2020 13:45:00 28.3 C 68 % 21.82 C
167 13-08-2020 13:50:00 28.5 C 69 % 22.25 C
168 13-08-2020 13:55:00 28.6 C 69 % 22.35 C
169 13-08-2020 14:00:00 28.8 C 66 % 21.81 C
170 13-08-2020 14:05:00 29.1 C 63 % 21.33 C
171 13-08-2020 14:10:00 29.3 C 64 % 21.78 C
172 13-08-2020 14:15:00 29.7 C 63 % 21.9 C
173 13-08-2020 14:20:00 29.9 C 59 % 21.01 C
174 13-08-2020 14:25:00 30.1 C 55 % 20.06 C
175 13-08-2020 14:30:00 30.2 C 54 % 19.86 C
Sensor: Nr:Datum:Temp:Feuchte:Taupunkt:
Aussen-T/F 176 13-08-2020 14:35:00 30.1 C 53 % 19.46 C
177 13-08-2020 14:40:00 29.9 C 52 % 18.97 C
178 13-08-2020 14:45:00 29.8 C 52 % 18.88 C
179 13-08-2020 14:50:00 29.9 C 51 % 18.66 C
180 13-08-2020 14:55:00 29.9 C 50 % 18.35 C
181 13-08-2020 15:00:00 29.9 C 52 % 18.97 C
182 13-08-2020 15:05:00 30 C 51 % 18.75 C
183 13-08-2020 15:10:00 30.1 C 51 % 18.85 C
184 13-08-2020 15:15:00 30 C 50 % 18.44 C
185 13-08-2020 15:20:00 29.8 C 51 % 18.57 C
186 13-08-2020 15:25:00 29.6 C 52 % 18.7 C
187 13-08-2020 15:30:00 29.3 C 53 % 18.73 C
188 13-08-2020 15:35:00 29.2 C 52 % 18.33 C
189 13-08-2020 15:40:00 29.1 C 53 % 18.54 C
190 13-08-2020 15:45:00 28.9 C 56 % 19.24 C
191 13-08-2020 15:50:00 28.8 C 55 % 18.86 C
192 13-08-2020 15:55:00 28.8 C 55 % 18.86 C
193 13-08-2020 16:00:00 28.7 C 57 % 19.34 C
194 13-08-2020 16:05:00 28.7 C 55 % 18.76 C
195 13-08-2020 16:10:00 28.7 C 54 % 18.47 C
196 13-08-2020 16:15:00 28.6 C 55 % 18.67 C
197 13-08-2020 16:20:00 28.4 C 57 % 19.06 C
198 13-08-2020 16:25:00 28.3 C 57 % 18.96 C
199 13-08-2020 16:30:00 28.3 C 56 % 18.68 C
200 13-08-2020 16:35:00 28.3 C 57 % 18.96 C
Sensor: Nr:Datum:Temp:Feuchte:Taupunkt:
Aussen-T/F 201 13-08-2020 16:40:00 28.3 C 57 % 18.96 C
202 13-08-2020 16:45:00 28.4 C 57 % 19.06 C
203 13-08-2020 16:50:00 28.3 C 57 % 18.96 C
204 13-08-2020 16:55:00 28.3 C 57 % 18.96 C
205 13-08-2020 17:00:00 28.2 C 59 % 19.42 C
206 13-08-2020 17:05:00 28.1 C 60 % 19.6 C
207 13-08-2020 17:10:00 28.1 C 60 % 19.6 C
208 13-08-2020 17:15:00 28.1 C 60 % 19.6 C
209 13-08-2020 17:20:00 28.1 C 62 % 20.13 C
210 13-08-2020 17:25:00 28.2 C 59 % 19.42 C
211 13-08-2020 17:30:00 28.4 C 61 % 20.15 C
212 13-08-2020 17:35:00 28.7 C 58 % 19.62 C
213 13-08-2020 17:40:00 28.7 C 58 % 19.62 C
214 13-08-2020 17:45:00 28.8 C 59 % 19.99 C
215 13-08-2020 17:50:00 28.9 C 58 % 19.8 C
216 13-08-2020 17:55:00 29.2 C 56 % 19.52 C
217 13-08-2020 18:00:00 29.4 C 55 % 19.41 C
218 13-08-2020 18:05:00 29.6 C 55 % 19.6 C
219 13-08-2020 18:10:00 29.6 C 57 % 20.17 C
220 13-08-2020 18:15:00 29.5 C 55 % 19.5 C
221 13-08-2020 18:20:00 29.2 C 54 % 18.93 C
222 13-08-2020 18:25:00 28.9 C 60 % 20.35 C
223 13-08-2020 18:30:00 28.7 C 60 % 20.16 C
224 13-08-2020 18:35:00 28.6 C 66 % 21.62 C
225 13-08-2020 18:40:00 28.4 C 67 % 21.68 C
Sensor: Nr:Datum:Temp:Feuchte:Taupunkt:
Aussen-T/F 226 13-08-2020 18:45:00 28.3 C 68 % 21.82 C
227 13-08-2020 18:50:00 28.1 C 69 % 21.87 C
228 13-08-2020 18:55:00 28 C 71 % 22.25 C
229 13-08-2020 19:00:00 27.9 C 70 % 21.92 C
230 13-08-2020 19:05:00 27.9 C 69 % 21.68 C
231 13-08-2020 19:10:00 27.9 C 65 % 20.71 C
232 13-08-2020 19:15:00 27.9 C 69 % 21.68 C
233 13-08-2020 19:20:00 27.9 C 70 % 21.92 C
234 13-08-2020 19:25:00 27.8 C 70 % 21.82 C
235 13-08-2020 19:30:00 27.7 C 71 % 21.96 C
236 13-08-2020 19:35:00 27.6 C 71 % 21.86 C
237 13-08-2020 19:40:00 27.5 C 71 % 21.77 C
238 13-08-2020 19:45:00 27.3 C 71 % 21.58 C
239 13-08-2020 19:50:00 27.1 C 72 % 21.61 C
240 13-08-2020 19:55:00 26.8 C 73 % 21.55 C
241 13-08-2020 20:00:00 26.6 C 73 % 21.36 C
242 13-08-2020 20:05:00 26.3 C 74 % 21.29 C
243 13-08-2020 20:10:00 26.2 C 74 % 21.2 C
244 13-08-2020 20:15:00 25.9 C 75 % 21.13 C
245 13-08-2020 20:20:00 25.7 C 76 % 21.15 C
246 13-08-2020 20:25:00 25.5 C 76 % 20.95 C
247 13-08-2020 20:30:00 25.2 C 77 % 20.88 C
248 13-08-2020 20:35:00 24.9 C 78 % 20.8 C
249 13-08-2020 20:40:00 24.6 C 79 % 20.71 C
250 13-08-2020 20:45:00 24.3 C 80 % 20.63 C
Sensor: Nr:Datum:Temp:Feuchte:Taupunkt:
Aussen-T/F 251 13-08-2020 20:50:00 24.1 C 81 % 20.63 C
252 13-08-2020 20:55:00 23.8 C 81 % 20.34 C
253 13-08-2020 21:00:00 23.6 C 81 % 20.15 C
254 13-08-2020 21:05:00 23.4 C 82 % 20.15 C
255 13-08-2020 21:10:00 23.2 C 82 % 19.95 C
256 13-08-2020 21:15:00 23 C 82 % 19.76 C
257 13-08-2020 21:20:00 22.8 C 83 % 19.76 C
258 13-08-2020 21:25:00 22.7 C 83 % 19.66 C
259 13-08-2020 21:30:00 22.7 C 84 % 19.86 C
260 13-08-2020 21:35:00 22.6 C 84 % 19.76 C
261 13-08-2020 21:40:00 22.6 C 84 % 19.76 C
262 13-08-2020 21:45:00 22.6 C 84 % 19.76 C
263 13-08-2020 21:50:00 22.6 C 84 % 19.76 C
264 13-08-2020 21:55:00 22.6 C 84 % 19.76 C
265 13-08-2020 22:00:00 22.6 C 84 % 19.76 C
266 13-08-2020 22:05:00 22.7 C 85 % 20.05 C
267 13-08-2020 22:10:00 22.7 C 85 % 20.05 C
268 13-08-2020 22:15:00 22.7 C 84 % 19.86 C
269 13-08-2020 22:20:00 22.6 C 84 % 19.76 C
270 13-08-2020 22:25:00 22.6 C 84 % 19.76 C
271 13-08-2020 22:30:00 22.6 C 84 % 19.76 C
272 13-08-2020 22:35:00 22.5 C 84 % 19.66 C
273 13-08-2020 22:40:00 22.5 C 84 % 19.66 C
274 13-08-2020 22:45:00 22.5 C 83 % 19.47 C
275 13-08-2020 22:50:00 22.6 C 83 % 19.56 C
Sensor: Nr:Datum:Temp:Feuchte:Taupunkt:
Aussen-T/F 276 13-08-2020 22:55:00 22.6 C 83 % 19.56 C
277 13-08-2020 23:00:00 22.6 C 82 % 19.37 C
278 13-08-2020 23:05:00 22.6 C 83 % 19.56 C
279 13-08-2020 23:10:00 22.7 C 83 % 19.66 C
280 13-08-2020 23:15:00 22.7 C 83 % 19.66 C
281 13-08-2020 23:20:00 22.6 C 83 % 19.56 C
282 13-08-2020 23:25:00 22.6 C 83 % 19.56 C
283 13-08-2020 23:30:00 22.6 C 83 % 19.56 C
284 13-08-2020 23:35:00 22.7 C 84 % 19.86 C
285 13-08-2020 23:40:00 22.6 C 84 % 19.76 C
286 13-08-2020 23:45:00 22.6 C 84 % 19.76 C
287 13-08-2020 23:50:00 22.6 C 84 % 19.76 C
288 13-08-2020 23:55:00 22.5 C 84 % 19.66 C

Legende:
   Min
   Max


Maximal/Minimal-Werte vom 23.02.2003 - 19.08.2019

Sensor Min Max Avg
Temp
(Aussen-T/F)
-16.4 °C
20-12-2009  01:30:01
40.4 °C
25-07-2019  16:20:00
11.22 °C
Feuchte
(Aussen-T/F)
18 %
17-07-2015  15:55:00
100 %
07-10-2012  03:05:00
76.99 %

Die Daten stammen von einer Davis Vantage Pro 2 Wetter-Station und werden unter Linux mit der Software wview2wettercgi und aufbereitet. Alle Angaben erfolgen ohne Gewähr für ihre Vollständigkeit oder Richtigkeit.
Kontakt: Rainer Krienke krienke@uni-koblenz.de . Meine Webseiten an der Uni Koblenz oder privat.
Version: $Revision: 0.78 $